createdAt,value
2018-12-20T00:00:29.569Z,1006.72
2018-12-20T00:01:29.529Z,1006.79
2018-12-20T00:02:29.513Z,1006.77
2018-12-20T00:03:29.503Z,1006.71
2018-12-20T00:04:29.612Z,1006.76
2018-12-20T00:05:29.481Z,1006.76
2018-12-20T00:06:29.474Z,1006.78
2018-12-20T00:07:29.543Z,1006.77
2018-12-20T00:08:29.453Z,1006.74
2018-12-20T00:09:29.456Z,1006.81
2018-12-20T00:10:29.507Z,1006.81
2018-12-20T00:11:29.437Z,1006.78
2018-12-20T00:12:29.408Z,1006.82
2018-12-20T00:13:29.395Z,1006.73
2018-12-20T00:14:30.140Z,1006.80
2018-12-20T00:15:29.458Z,1006.81
2018-12-20T00:16:29.422Z,1006.76
2018-12-20T00:17:29.375Z,1006.86
2018-12-20T00:18:29.352Z,1006.89
2018-12-20T00:19:29.487Z,1006.83
2018-12-20T00:20:29.414Z,1006.91
2018-12-20T00:21:29.318Z,1006.89
2018-12-20T00:22:29.435Z,1006.76
2018-12-20T00:23:29.287Z,1006.85
2018-12-20T00:24:29.382Z,1006.81
2018-12-20T00:25:29.267Z,1006.79
2018-12-20T00:26:29.262Z,1006.77
2018-12-20T00:27:29.353Z,1006.84
2018-12-20T00:28:29.238Z,1006.78
2018-12-20T00:29:29.228Z,1006.79
2018-12-20T00:30:29.235Z,1006.80
2018-12-20T00:31:29.304Z,1006.83
2018-12-20T00:32:29.206Z,1006.78
2018-12-20T00:33:29.212Z,1006.82
2018-12-20T00:34:29.202Z,1006.78
2018-12-20T00:35:29.174Z,1006.82
2018-12-20T00:36:29.333Z,1006.81
2018-12-20T00:37:29.195Z,1006.82
2018-12-20T00:38:29.163Z,1006.84
2018-12-20T00:39:29.232Z,1006.81
2018-12-20T00:40:29.111Z,1006.79
2018-12-20T00:41:29.194Z,1006.72
2018-12-20T00:42:29.086Z,1006.78
2018-12-20T00:43:29.114Z,1006.79
2018-12-20T00:44:29.187Z,1006.76
2018-12-20T00:45:29.063Z,1006.78
2018-12-20T00:46:29.238Z,1006.76
2018-12-20T00:47:29.040Z,1006.77
2018-12-20T00:48:29.083Z,1006.74
2018-12-20T00:49:29.098Z,1006.82
2018-12-20T00:50:29.007Z,1006.78
2018-12-20T00:51:29.074Z,1006.72
2018-12-20T00:52:29.128Z,1006.77
2018-12-20T00:53:28.981Z,1006.70
2018-12-20T00:54:28.998Z,1006.75
2018-12-20T00:55:28.965Z,1006.80
2018-12-20T00:56:28.943Z,1006.78
2018-12-20T00:57:29.096Z,1006.79
2018-12-20T00:58:28.927Z,1006.73
2018-12-20T00:59:29.142Z,1006.75
2018-12-20T01:00:28.902Z,1006.81
2018-12-20T01:01:29.013Z,1006.75
2018-12-20T01:02:28.890Z,1006.83
2018-12-20T01:03:28.907Z,1006.77
2018-12-20T01:04:28.861Z,1006.83
2018-12-20T01:05:28.986Z,1006.76
2018-12-20T01:06:28.968Z,1006.78
2018-12-20T01:07:28.842Z,1006.80
2018-12-20T01:08:28.844Z,1006.78
2018-12-20T01:09:28.949Z,1006.81
2018-12-20T01:10:28.900Z,1006.79
2018-12-20T01:11:28.937Z,1006.74
2018-12-20T01:12:28.780Z,1006.77
2018-12-20T01:13:28.767Z,1006.76
2018-12-20T01:14:28.836Z,1006.75
2018-12-20T01:15:28.844Z,1006.71
2018-12-20T01:16:28.900Z,1006.72
2018-12-20T01:17:28.751Z,1006.74
2018-12-20T01:18:28.726Z,1006.71
2018-12-20T01:19:28.702Z,1006.78
2018-12-20T01:20:28.703Z,1006.77
2018-12-20T01:21:28.678Z,1006.72
2018-12-20T01:22:28.786Z,1006.77
2018-12-20T01:23:28.660Z,1006.73
2018-12-20T01:24:28.922Z,1006.79
2018-12-20T01:25:28.725Z,1006.76
2018-12-20T01:26:28.626Z,1006.81
2018-12-20T01:27:28.762Z,1006.77
2018-12-20T01:28:28.690Z,1006.76
2018-12-20T01:29:28.594Z,1006.73
2018-12-20T01:30:28.589Z,1006.77
2018-12-20T01:31:28.577Z,1006.76
2018-12-20T01:32:28.648Z,1006.72
2018-12-20T01:33:28.607Z,1006.77
2018-12-20T01:34:28.559Z,1006.77
2018-12-20T01:35:28.531Z,1006.77
2018-12-20T01:36:28.567Z,1006.72
2018-12-20T01:37:28.535Z,1006.68
2018-12-20T01:38:28.603Z,1006.74
2018-12-20T01:39:28.725Z,1006.72
2018-12-20T01:40:28.479Z,1006.65
2018-12-20T01:41:28.643Z,1006.74
2018-12-20T01:42:28.513Z,1006.75
2018-12-20T01:43:28.452Z,1006.71
2018-12-20T01:44:28.525Z,1006.73
2018-12-20T01:45:28.431Z,1006.72
2018-12-20T01:46:28.418Z,1006.70
2018-12-20T01:47:28.407Z,1006.73
2018-12-20T01:48:28.569Z,1006.71
2018-12-20T01:49:28.390Z,1006.74
2018-12-20T01:50:28.410Z,1006.70
2018-12-20T01:51:28.373Z,1006.72
2018-12-20T01:52:28.409Z,1006.76
2018-12-20T01:53:28.357Z,1006.72
2018-12-20T01:54:28.362Z,1006.69
2018-12-20T01:55:28.328Z,1006.78
2018-12-20T01:56:28.316Z,1006.73
2018-12-20T01:57:28.308Z,1006.75
2018-12-20T01:58:28.291Z,1006.74
2018-12-20T01:59:28.368Z,1006.79
2018-12-20T02:00:28.274Z,1006.75
2018-12-20T02:01:28.451Z,1006.76
2018-12-20T02:02:28.433Z,1006.73
2018-12-20T02:03:28.241Z,1006.71
2018-12-20T02:04:28.392Z,1006.77
2018-12-20T02:05:28.233Z,1006.76
2018-12-20T02:06:28.206Z,1006.80
2018-12-20T02:07:28.223Z,1006.82
2018-12-20T02:08:28.190Z,1006.78
2018-12-20T02:09:28.379Z,1006.77
2018-12-20T02:10:28.166Z,1006.80
2018-12-20T02:11:28.152Z,1006.75
2018-12-20T02:12:28.168Z,1006.78
2018-12-20T02:13:28.278Z,1006.77
2018-12-20T02:14:28.149Z,1006.73
2018-12-20T02:15:28.113Z,1006.75
2018-12-20T02:16:28.341Z,1006.72
2018-12-20T02:17:28.230Z,1006.76
2018-12-20T02:18:28.252Z,1006.73
2018-12-20T02:19:28.066Z,1006.77
2018-12-20T02:20:28.114Z,1006.80
2018-12-20T02:21:28.314Z,1006.76
2018-12-20T02:22:28.191Z,1006.75
2018-12-20T02:23:28.260Z,1006.74
2018-12-20T02:24:28.179Z,1006.74
2018-12-20T02:25:28.150Z,1006.75
2018-12-20T02:26:28.265Z,1006.76
2018-12-20T02:27:28.229Z,1006.72
2018-12-20T02:28:27.974Z,1006.74
2018-12-20T02:29:28.071Z,1006.70
2018-12-20T02:30:28.121Z,1006.72
2018-12-20T02:31:28.061Z,1006.69
2018-12-20T02:32:28.266Z,1006.72
2018-12-20T02:33:27.996Z,1006.69
2018-12-20T02:34:28.037Z,1006.70
2018-12-20T02:35:27.971Z,1006.67
2018-12-20T02:36:27.943Z,1006.63
2018-12-20T02:37:27.884Z,1006.69
2018-12-20T02:38:27.865Z,1006.62
2018-12-20T02:39:27.894Z,1006.66
2018-12-20T02:40:27.848Z,1006.63
2018-12-20T02:41:27.837Z,1006.61
2018-12-20T02:42:27.822Z,1006.63
2018-12-20T02:43:28.037Z,1006.68
2018-12-20T02:44:27.803Z,1006.63
2018-12-20T02:45:27.809Z,1006.64
2018-12-20T02:46:27.914Z,1006.64
2018-12-20T02:47:27.799Z,1006.58
2018-12-20T02:48:27.766Z,1006.57
2018-12-20T02:49:27.906Z,1006.56
2018-12-20T02:50:27.740Z,1006.55
2018-12-20T02:51:27.889Z,1006.56
2018-12-20T02:52:27.818Z,1006.55
2018-12-20T02:53:27.707Z,1006.53
2018-12-20T02:54:27.887Z,1006.49
2018-12-20T02:55:27.942Z,1006.51
2018-12-20T02:56:27.865Z,1006.49
2018-12-20T02:57:27.896Z,1006.48
2018-12-20T02:58:27.658Z,1006.50
2018-12-20T02:59:27.774Z,1006.47
2018-12-20T03:00:27.722Z,1006.47
2018-12-20T03:01:27.627Z,1006.46
2018-12-20T03:02:27.638Z,1006.48
2018-12-20T03:03:27.836Z,1006.48
2018-12-20T03:04:27.608Z,1006.44
2018-12-20T03:05:27.579Z,1006.36
2018-12-20T03:06:27.574Z,1006.40
2018-12-20T03:07:27.562Z,1006.37
2018-12-20T03:08:27.734Z,1006.35
2018-12-20T03:09:27.543Z,1006.37
2018-12-20T03:10:27.727Z,1006.33
2018-12-20T03:11:27.693Z,1006.31
2018-12-20T03:12:27.540Z,1006.31
2018-12-20T03:13:27.802Z,1006.41
2018-12-20T03:14:27.618Z,1006.35
2018-12-20T03:15:27.474Z,1006.31
2018-12-20T03:16:27.621Z,1006.35
2018-12-20T03:17:27.453Z,1006.32
2018-12-20T03:18:27.583Z,1006.37
2018-12-20T03:19:27.639Z,1006.38
2018-12-20T03:20:27.436Z,1006.26
2018-12-20T03:21:27.446Z,1006.28
2018-12-20T03:22:27.423Z,1006.30
2018-12-20T03:23:27.425Z,1006.25
2018-12-20T03:24:27.379Z,1006.26
2018-12-20T03:25:27.391Z,1006.29
2018-12-20T03:26:27.481Z,1006.20
2018-12-20T03:27:27.352Z,1006.24
2018-12-20T03:28:27.373Z,1006.22
2018-12-20T03:29:27.335Z,1006.28
2018-12-20T03:30:27.698Z,1006.27
2018-12-20T03:31:27.393Z,1006.24
2018-12-20T03:32:27.302Z,1006.29
2018-12-20T03:33:27.465Z,1006.29
2018-12-20T03:34:27.494Z,1006.30
2018-12-20T03:35:27.265Z,1006.33
2018-12-20T03:36:27.260Z,1006.26
2018-12-20T03:37:27.412Z,1006.24
2018-12-20T03:38:27.234Z,1006.25
2018-12-20T03:39:27.222Z,1006.32
2018-12-20T03:40:27.214Z,1006.25
2018-12-20T03:41:27.202Z,1006.26
2018-12-20T03:42:27.333Z,1006.28
2018-12-20T03:43:27.446Z,1006.28
2018-12-20T03:44:27.387Z,1006.29
2018-12-20T03:45:29.078Z,1006.20
2018-12-20T03:46:27.402Z,1006.22
2018-12-20T03:47:27.144Z,1006.27
2018-12-20T03:48:27.133Z,1006.21
2018-12-20T03:49:27.126Z,1006.26
2018-12-20T03:50:27.185Z,1006.23
2018-12-20T03:51:27.136Z,1006.21
2018-12-20T03:52:27.091Z,1006.27
2018-12-20T03:53:27.218Z,1006.17
2018-12-20T03:54:27.183Z,1006.29
2018-12-20T03:55:27.059Z,1006.22
2018-12-20T03:56:27.050Z,1006.22
2018-12-20T03:57:27.338Z,1006.19
2018-12-20T03:58:27.061Z,1006.22
2018-12-20T03:59:27.013Z,1006.24
2018-12-20T04:00:27.008Z,1006.21
2018-12-20T04:01:27.147Z,1006.24
2018-12-20T04:02:26.983Z,1006.23
2018-12-20T04:03:26.983Z,1006.26
2018-12-20T04:04:27.067Z,1006.33
2018-12-20T04:05:27.000Z,1006.30
2018-12-20T04:06:27.032Z,1006.33
2018-12-20T04:07:27.001Z,1006.28
2018-12-20T04:08:26.960Z,1006.32
2018-12-20T04:09:27.018Z,1006.24
2018-12-20T04:10:27.274Z,1006.29
2018-12-20T04:11:27.094Z,1006.29
2018-12-20T04:12:27.134Z,1006.23
2018-12-20T04:13:26.869Z,1006.23
2018-12-20T04:14:27.181Z,1006.30
2018-12-20T04:15:26.852Z,1006.25
2018-12-20T04:16:26.942Z,1006.25
2018-12-20T04:17:26.827Z,1006.33
2018-12-20T04:18:26.822Z,1006.28
2018-12-20T04:19:27.031Z,1006.31
2018-12-20T04:20:26.800Z,1006.26
2018-12-20T04:21:26.988Z,1006.28
2018-12-20T04:22:26.775Z,1006.28
2018-12-20T04:23:26.764Z,1006.32
2018-12-20T04:24:26.960Z,1006.25
2018-12-20T04:25:26.838Z,1006.23
2018-12-20T04:26:26.739Z,1006.28
2018-12-20T04:27:26.782Z,1006.26
2018-12-20T04:28:26.718Z,1006.25
2018-12-20T04:29:26.943Z,1006.27
2018-12-20T04:30:26.718Z,1006.26
2018-12-20T04:31:26.793Z,1006.27
2018-12-20T04:32:26.697Z,1006.29
2018-12-20T04:33:26.667Z,1006.26
2018-12-20T04:34:26.771Z,1006.24
2018-12-20T04:35:26.865Z,1006.26
2018-12-20T04:36:26.850Z,1006.27
2018-12-20T04:37:26.643Z,1006.26
2018-12-20T04:38:26.687Z,1006.28
2018-12-20T04:39:26.719Z,1006.28
2018-12-20T04:40:26.597Z,1006.33
2018-12-20T04:41:26.590Z,1006.34
2018-12-20T04:42:26.813Z,1006.38
2018-12-20T04:43:26.615Z,1006.37
2018-12-20T04:44:26.748Z,1006.38
2018-12-20T04:45:26.537Z,1006.43
2018-12-20T04:46:26.532Z,1006.41
2018-12-20T04:47:26.527Z,1006.40
2018-12-20T04:48:26.677Z,1006.45
2018-12-20T04:49:26.635Z,1006.44
2018-12-20T04:50:26.720Z,1006.45
2018-12-20T04:51:26.489Z,1006.48
2018-12-20T04:52:26.469Z,1006.51
2018-12-20T04:53:26.622Z,1006.54
2018-12-20T04:54:26.661Z,1006.51
2018-12-20T04:55:26.433Z,1006.50
2018-12-20T04:56:26.423Z,1006.49
2018-12-20T04:57:26.776Z,1006.53
2018-12-20T04:58:26.581Z,1006.54
2018-12-20T04:59:26.424Z,1006.49
2018-12-20T05:00:26.386Z,1006.46
2018-12-20T05:01:26.501Z,1006.45
2018-12-20T05:02:26.400Z,1006.46
2018-12-20T05:03:26.350Z,1006.44
2018-12-20T05:04:26.341Z,1006.42
2018-12-20T05:05:26.652Z,1006.48
2018-12-20T05:06:26.316Z,1006.49
2018-12-20T05:07:26.452Z,1006.45
2018-12-20T05:08:26.319Z,1006.48
2018-12-20T05:09:26.284Z,1006.49
2018-12-20T05:10:26.277Z,1006.48
2018-12-20T05:11:26.464Z,1006.45
2018-12-20T05:12:26.399Z,1006.47
2018-12-20T05:13:26.440Z,1006.53
2018-12-20T05:14:26.441Z,1006.49
2018-12-20T05:15:26.373Z,1006.47
2018-12-20T05:16:26.402Z,1006.46
2018-12-20T05:17:26.196Z,1006.46
2018-12-20T05:18:26.219Z,1006.48
2018-12-20T05:19:26.212Z,1006.48
2018-12-20T05:20:26.216Z,1006.56
2018-12-20T05:21:26.153Z,1006.49
2018-12-20T05:22:26.307Z,1006.49
2018-12-20T05:23:26.308Z,1006.46
2018-12-20T05:24:26.159Z,1006.44
2018-12-20T05:25:26.113Z,1006.46
2018-12-20T05:26:26.179Z,1006.52
2018-12-20T05:27:26.087Z,1006.54
2018-12-20T05:28:26.200Z,1006.47
2018-12-20T05:29:26.310Z,1006.50
2018-12-20T05:30:26.061Z,1006.53
2018-12-20T05:31:26.048Z,1006.58
2018-12-20T05:32:26.036Z,1006.61
2018-12-20T05:33:26.245Z,1006.57
2018-12-20T05:34:26.073Z,1006.64
2018-12-20T05:35:26.044Z,1006.64
2018-12-20T05:36:25.994Z,1006.63
2018-12-20T05:37:26.049Z,1006.67
2018-12-20T05:38:26.090Z,1006.69
2018-12-20T05:39:26.038Z,1006.72
2018-12-20T05:40:26.015Z,1006.70
2018-12-20T05:41:26.127Z,1006.67
2018-12-20T05:42:26.008Z,1006.65
2018-12-20T05:43:25.930Z,1006.65
2018-12-20T05:44:25.923Z,1006.65
2018-12-20T05:45:26.046Z,1006.59
2018-12-20T05:46:25.901Z,1006.63
2018-12-20T05:47:26.045Z,1006.69
2018-12-20T05:48:25.868Z,1006.61
2018-12-20T05:49:25.870Z,1006.61
2018-12-20T05:50:25.843Z,1006.65
2018-12-20T05:51:25.862Z,1006.61
2018-12-20T05:52:25.955Z,1006.63
2018-12-20T05:53:25.858Z,1006.65
2018-12-20T05:54:25.800Z,1006.61
2018-12-20T05:55:25.987Z,1006.64
2018-12-20T05:56:25.772Z,1006.65
2018-12-20T05:57:25.761Z,1006.67
2018-12-20T05:58:25.788Z,1006.65
2018-12-20T05:59:25.856Z,1006.64
2018-12-20T06:00:25.724Z,1006.67
2018-12-20T06:01:25.899Z,1006.68
2018-12-20T06:02:25.855Z,1006.66
2018-12-20T06:03:25.694Z,1006.69
2018-12-20T06:04:25.692Z,1006.73
2018-12-20T06:05:25.899Z,1006.69
2018-12-20T06:06:25.658Z,1006.73
2018-12-20T06:07:25.712Z,1006.75
2018-12-20T06:08:25.641Z,1006.73
2018-12-20T06:09:25.642Z,1006.75
2018-12-20T06:10:25.910Z,1006.75
2018-12-20T06:11:25.850Z,1006.77
2018-12-20T06:12:25.785Z,1006.88
2018-12-20T06:13:25.613Z,1006.86
2018-12-20T06:14:25.574Z,1006.89
2018-12-20T06:15:25.574Z,1006.91
2018-12-20T06:16:25.552Z,1006.91
2018-12-20T06:17:25.622Z,1006.95
2018-12-20T06:18:25.705Z,1006.94
2018-12-20T06:19:25.514Z,1006.87
2018-12-20T06:20:25.633Z,1006.95
2018-12-20T06:21:25.636Z,1006.96
2018-12-20T06:22:25.689Z,1006.96
2018-12-20T06:23:25.516Z,1006.93
2018-12-20T06:24:25.481Z,1006.96
2018-12-20T06:25:25.448Z,1006.99
2018-12-20T06:26:25.442Z,1006.98
2018-12-20T06:27:25.428Z,1006.96
2018-12-20T06:28:25.419Z,1006.97
2018-12-20T06:29:25.408Z,1006.93
2018-12-20T06:30:25.392Z,1006.94
2018-12-20T06:31:25.380Z,1006.95
2018-12-20T06:32:25.368Z,1006.94
2018-12-20T06:33:25.362Z,1006.92
2018-12-20T06:34:25.353Z,1006.91
2018-12-20T06:35:25.341Z,1006.98
2018-12-20T06:36:25.330Z,1006.95
2018-12-20T06:37:25.319Z,1006.88
2018-12-20T06:38:25.302Z,1006.91
2018-12-20T06:39:25.292Z,1006.92
2018-12-20T06:40:25.285Z,1006.93
2018-12-20T06:41:25.275Z,1006.98
2018-12-20T06:42:25.259Z,1006.94
2018-12-20T06:43:25.248Z,1006.97
2018-12-20T06:44:25.236Z,1006.94
2018-12-20T06:45:25.225Z,1006.99
2018-12-20T06:46:25.218Z,1006.99
2018-12-20T06:47:25.207Z,1006.94
2018-12-20T06:48:25.197Z,1006.98
2018-12-20T06:49:25.185Z,1006.98
2018-12-20T06:50:25.169Z,1007.01
2018-12-20T06:51:25.159Z,1006.98
2018-12-20T06:52:25.146Z,1006.97
2018-12-20T06:53:25.137Z,1007.00
2018-12-20T06:54:25.129Z,1006.98
2018-12-20T06:55:25.117Z,1006.94
2018-12-20T06:56:25.102Z,1006.94
2018-12-20T06:57:25.094Z,1006.97
2018-12-20T06:58:25.085Z,1006.96
2018-12-20T06:59:25.074Z,1006.94
2018-12-20T07:00:25.063Z,1006.95
2018-12-20T07:01:25.056Z,1006.94
2018-12-20T07:02:25.037Z,1006.90
2018-12-20T07:03:25.026Z,1006.95
2018-12-20T07:04:25.015Z,1006.94
2018-12-20T07:05:25.003Z,1006.90
2018-12-20T07:06:24.997Z,1006.93
2018-12-20T07:07:24.986Z,1006.99
2018-12-20T07:08:24.974Z,1006.96
2018-12-20T07:09:24.963Z,1006.97
2018-12-20T07:10:24.960Z,1006.90
2018-12-20T07:11:25.152Z,1006.98
2018-12-20T07:12:24.932Z,1006.96
2018-12-20T07:13:24.919Z,1006.97
2018-12-20T07:14:24.924Z,1006.97
2018-12-20T07:15:24.893Z,1006.98
2018-12-20T07:16:29.338Z,1006.93
2018-12-20T07:17:24.871Z,1006.93
2018-12-20T07:18:24.865Z,1006.93
2018-12-20T07:19:24.852Z,1006.99
2018-12-20T07:20:24.843Z,1007.00
2018-12-20T07:21:24.832Z,1007.02
2018-12-20T07:22:24.816Z,1007.07
2018-12-20T07:23:24.804Z,1007.04
2018-12-20T07:24:24.793Z,1007.04
2018-12-20T07:25:24.783Z,1007.06
2018-12-20T07:26:24.777Z,1007.07
2018-12-20T07:27:24.765Z,1007.10
2018-12-20T07:28:24.752Z,1007.09
2018-12-20T07:29:24.743Z,1007.08
2018-12-20T07:30:24.733Z,1007.09
2018-12-20T07:31:24.722Z,1007.13
2018-12-20T07:32:25.353Z,1007.07
2018-12-20T07:33:24.700Z,1007.13
2018-12-20T07:34:24.686Z,1007.11
2018-12-20T07:35:24.674Z,1007.05
2018-12-20T07:36:24.663Z,1007.10
2018-12-20T07:37:24.654Z,1007.07
2018-12-20T07:38:24.648Z,1007.13
2018-12-20T07:39:24.636Z,1007.11
2018-12-20T07:40:24.628Z,1007.15
2018-12-20T07:41:24.614Z,1007.12
2018-12-20T07:42:24.599Z,1007.08
2018-12-20T07:43:24.588Z,1007.12
2018-12-20T07:44:24.581Z,1007.15
2018-12-20T07:45:24.571Z,1007.14
2018-12-20T07:46:24.556Z,1007.19
2018-12-20T07:47:24.545Z,1007.13
2018-12-20T07:48:31.850Z,1007.14
2018-12-20T07:49:24.524Z,1007.16
2018-12-20T07:50:24.519Z,1007.22
2018-12-20T07:51:25.553Z,1007.18
2018-12-20T07:52:24.504Z,1007.16
2018-12-20T07:53:24.486Z,1007.24
2018-12-20T07:54:24.472Z,1007.23
2018-12-20T07:55:24.459Z,1007.22
2018-12-20T07:56:24.450Z,1007.19
2018-12-20T07:57:24.985Z,1007.22
2018-12-20T07:58:24.433Z,1007.19
2018-12-20T07:59:24.421Z,1007.22
2018-12-20T08:00:24.406Z,1007.27
2018-12-20T08:01:24.395Z,1007.22
2018-12-20T08:02:24.390Z,1007.20
2018-12-20T08:03:24.378Z,1007.27
2018-12-20T08:04:24.368Z,1007.31
2018-12-20T08:05:24.357Z,1007.21
2018-12-20T08:06:24.342Z,1007.30
2018-12-20T08:07:24.330Z,1007.37
2018-12-20T08:08:24.319Z,1007.30
2018-12-20T08:09:24.309Z,1007.27
2018-12-20T08:10:24.304Z,1007.35
2018-12-20T08:11:24.293Z,1007.32
2018-12-20T08:12:24.281Z,1007.36
2018-12-20T08:13:24.270Z,1007.34
2018-12-20T08:14:24.256Z,1007.35
2018-12-20T08:15:24.245Z,1007.35
2018-12-20T08:16:24.239Z,1007.31
2018-12-20T08:17:24.228Z,1007.35
2018-12-20T08:18:24.212Z,1007.32
2018-12-20T08:19:24.201Z,1007.39
2018-12-20T08:20:24.190Z,1007.38
2018-12-20T08:21:24.181Z,1007.35
2018-12-20T08:22:24.176Z,1007.43
2018-12-20T08:23:24.164Z,1007.41
2018-12-20T08:24:24.153Z,1007.42
2018-12-20T08:25:24.144Z,1007.40
2018-12-20T08:26:24.127Z,1007.44
2018-12-20T08:27:24.117Z,1007.44
2018-12-20T08:28:24.106Z,1007.45
2018-12-20T08:29:24.095Z,1007.49
2018-12-20T08:30:24.089Z,1007.52
2018-12-20T08:31:24.079Z,1007.45
2018-12-20T08:32:24.063Z,1007.50
2018-12-20T08:33:24.053Z,1007.55
2018-12-20T08:34:24.046Z,1007.49
2018-12-20T08:35:24.035Z,1007.54
2018-12-20T08:36:24.027Z,1007.47
2018-12-20T08:37:24.018Z,1007.52
2018-12-20T08:38:24.001Z,1007.51
2018-12-20T08:39:23.991Z,1007.51
2018-12-20T08:40:23.978Z,1007.52
2018-12-20T08:41:23.969Z,1007.53
2018-12-20T08:42:23.963Z,1007.55
2018-12-20T08:43:23.952Z,1007.53
2018-12-20T08:44:23.946Z,1007.54
2018-12-20T08:45:23.933Z,1007.60
2018-12-20T08:46:23.920Z,1007.60
2018-12-20T08:47:24.008Z,1007.67
2018-12-20T08:48:23.901Z,1007.67
2018-12-20T08:49:23.894Z,1007.61
2018-12-20T08:50:23.876Z,1007.66
2018-12-20T08:51:23.865Z,1007.65
2018-12-20T08:52:23.855Z,1007.66
2018-12-20T08:53:23.847Z,1007.66
2018-12-20T08:54:23.840Z,1007.70
2018-12-20T08:55:23.834Z,1007.68
2018-12-20T08:56:23.817Z,1007.72
2018-12-20T08:57:23.808Z,1007.68
2018-12-20T08:58:23.793Z,1007.75
2018-12-20T08:59:23.783Z,1007.70
2018-12-20T09:00:23.772Z,1007.74
2018-12-20T09:01:23.763Z,1007.72
2018-12-20T09:02:23.759Z,1007.70
2018-12-20T09:03:23.747Z,1007.72
2018-12-20T09:04:23.731Z,1007.78
2018-12-20T09:05:23.722Z,1007.78
2018-12-20T09:06:23.717Z,1007.72
2018-12-20T09:07:23.705Z,1007.73
2018-12-20T09:08:25.381Z,1007.72
2018-12-20T09:09:23.685Z,1007.76
2018-12-20T09:10:23.671Z,1007.78
2018-12-20T09:11:23.660Z,1007.80
2018-12-20T09:12:23.649Z,1007.74
2018-12-20T09:13:23.639Z,1007.80
2018-12-20T09:14:23.635Z,1007.81
2018-12-20T09:15:23.628Z,1007.83
2018-12-20T09:16:23.615Z,1007.80
2018-12-20T09:17:23.603Z,1007.91
2018-12-20T09:18:23.588Z,1007.84
2018-12-20T09:19:23.671Z,1007.83
2018-12-20T09:20:23.576Z,1007.86
2018-12-20T09:21:23.562Z,1007.91
2018-12-20T09:22:23.550Z,1007.89
2018-12-20T09:23:23.538Z,1007.90
2018-12-20T09:24:23.527Z,1007.86
2018-12-20T09:25:23.517Z,1007.89
2018-12-20T09:26:23.511Z,1007.89
2018-12-20T09:27:23.500Z,1007.83
2018-12-20T09:28:23.491Z,1007.86
2018-12-20T09:29:23.481Z,1007.84
2018-12-20T09:30:30.445Z,1007.85
2018-12-20T09:31:23.457Z,1007.93
2018-12-20T09:32:23.449Z,1007.98
2018-12-20T09:33:23.436Z,1007.93
2018-12-20T09:34:23.433Z,1007.93
2018-12-20T09:35:23.420Z,1007.94
2018-12-20T09:36:23.407Z,1007.94
2018-12-20T09:37:23.399Z,1007.93
2018-12-20T09:38:23.393Z,1007.92
2018-12-20T09:39:23.381Z,1007.85
2018-12-20T09:40:23.371Z,1007.92
2018-12-20T09:41:23.469Z,1007.90
2018-12-20T09:42:23.349Z,1007.92
2018-12-20T09:43:24.896Z,1007.88
2018-12-20T09:44:23.328Z,1007.89
2018-12-20T09:45:23.322Z,1007.87
2018-12-20T09:46:23.314Z,1007.90
2018-12-20T09:47:23.305Z,1007.91
2018-12-20T09:48:23.295Z,1007.93
2018-12-20T09:49:23.285Z,1007.81
2018-12-20T09:50:23.270Z,1007.88
2018-12-20T09:51:23.262Z,1007.94
2018-12-20T09:52:23.255Z,1007.95
2018-12-20T09:53:23.247Z,1007.88
2018-12-20T09:54:23.232Z,1007.96
2018-12-20T09:55:23.223Z,1007.94
2018-12-20T09:56:23.212Z,1007.89
2018-12-20T09:57:23.203Z,1007.90
2018-12-20T09:58:23.198Z,1007.94
2018-12-20T09:59:23.190Z,1007.93
2018-12-20T10:00:23.180Z,1007.93
2018-12-20T10:01:23.171Z,1007.92
2018-12-20T10:02:23.159Z,1007.87
2018-12-20T10:03:25.090Z,1007.92
2018-12-20T10:04:23.136Z,1007.91
2018-12-20T10:05:23.127Z,1007.90
2018-12-20T10:06:23.121Z,1007.92
2018-12-20T10:07:23.111Z,1007.91
2018-12-20T10:08:23.097Z,1007.87
2018-12-20T10:09:23.087Z,1007.87
2018-12-20T10:10:23.093Z,1007.88
2018-12-20T10:11:23.072Z,1007.90
2018-12-20T10:12:23.064Z,1007.78
2018-12-20T10:13:23.054Z,1007.85
2018-12-20T10:14:23.039Z,1007.84
2018-12-20T10:15:23.028Z,1007.82
2018-12-20T10:16:23.020Z,1007.82
2018-12-20T10:17:23.010Z,1007.85
2018-12-20T10:18:23.005Z,1007.81
2018-12-20T10:19:22.999Z,1007.81
2018-12-20T10:20:22.984Z,1007.79
2018-12-20T10:21:22.977Z,1007.81
2018-12-20T10:22:22.961Z,1007.70
2018-12-20T10:23:22.950Z,1007.74
2018-12-20T10:24:22.947Z,1007.79
2018-12-20T10:25:22.935Z,1007.78
2018-12-20T10:26:22.922Z,1007.79
2018-12-20T10:27:31.236Z,1007.82
2018-12-20T10:28:22.902Z,1007.81
2018-12-20T10:29:22.893Z,1007.80
2018-12-20T10:30:22.886Z,1007.70
2018-12-20T10:31:22.876Z,1007.80
2018-12-20T10:32:22.866Z,1007.79
2018-12-20T10:33:22.858Z,1007.75
2018-12-20T10:34:22.843Z,1007.84
2018-12-20T10:35:22.833Z,1007.76
2018-12-20T10:36:22.824Z,1007.81
2018-12-20T10:37:22.814Z,1007.83
2018-12-20T10:38:22.808Z,1007.79
2018-12-20T10:39:22.797Z,1007.80
2018-12-20T10:40:22.786Z,1007.85
2018-12-20T10:41:22.774Z,1007.85
2018-12-20T10:42:22.769Z,1007.79
2018-12-20T10:43:22.758Z,1007.84
2018-12-20T10:44:22.749Z,1007.76
2018-12-20T10:45:22.741Z,1007.74
2018-12-20T10:46:22.726Z,1007.73
2018-12-20T10:47:28.779Z,1007.78
2018-12-20T10:48:22.707Z,1007.75
2018-12-20T10:49:22.698Z,1007.77
2018-12-20T10:50:22.691Z,1007.73
2018-12-20T10:51:22.681Z,1007.78
2018-12-20T10:52:22.672Z,1007.72
2018-12-20T10:53:22.662Z,1007.76
2018-12-20T10:54:22.648Z,1007.74
2018-12-20T10:55:22.637Z,1007.72
2018-12-20T10:56:22.632Z,1007.76
2018-12-20T10:57:22.622Z,1007.75
2018-12-20T10:58:22.610Z,1007.76
2018-12-20T10:59:22.597Z,1007.69
2018-12-20T11:00:22.589Z,1007.71
2018-12-20T11:01:22.581Z,1007.75
2018-12-20T11:02:22.574Z,1007.66
2018-12-20T11:03:22.564Z,1007.64
2018-12-20T11:04:22.555Z,1007.67
2018-12-20T11:05:22.547Z,1007.66
2018-12-20T11:06:22.530Z,1007.61
2018-12-20T11:07:22.520Z,1007.58
2018-12-20T11:08:22.512Z,1007.58
2018-12-20T11:09:22.502Z,1007.59
2018-12-20T11:10:22.497Z,1007.56
2018-12-20T11:11:22.527Z,1007.56
2018-12-20T11:12:22.476Z,1007.55
2018-12-20T11:13:22.464Z,1007.51
2018-12-20T11:14:22.458Z,1007.48
2018-12-20T11:15:22.451Z,1007.50
2018-12-20T11:16:22.439Z,1007.45
2018-12-20T11:17:22.443Z,1007.51
2018-12-20T11:18:22.416Z,1007.50
2018-12-20T11:19:22.405Z,1007.45
2018-12-20T11:20:22.397Z,1007.46
2018-12-20T11:21:22.386Z,1007.49
2018-12-20T11:22:22.382Z,1007.39
2018-12-20T11:23:22.377Z,1007.40
2018-12-20T11:24:22.363Z,1007.42
2018-12-20T11:25:22.356Z,1007.33
2018-12-20T11:26:22.341Z,1007.39
2018-12-20T11:27:22.332Z,1007.40
2018-12-20T11:28:22.326Z,1007.42
2018-12-20T11:29:22.318Z,1007.38
2018-12-20T11:30:22.302Z,1007.33
2018-12-20T11:31:22.292Z,1007.34
2018-12-20T11:32:22.283Z,1007.40
2018-12-20T11:33:22.274Z,1007.34
2018-12-20T11:34:22.270Z,1007.40
2018-12-20T11:35:22.260Z,1007.42
2018-12-20T11:36:22.253Z,1007.35
2018-12-20T11:37:22.243Z,1007.35
2018-12-20T11:38:22.229Z,1007.36
2018-12-20T11:39:22.222Z,1007.41
2018-12-20T11:40:22.212Z,1007.39
2018-12-20T11:41:22.203Z,1007.38
2018-12-20T11:42:22.199Z,1007.40
2018-12-20T11:43:22.189Z,1007.34
2018-12-20T11:44:22.176Z,1007.41
2018-12-20T11:45:22.166Z,1007.33
2018-12-20T11:46:22.162Z,1007.28
2018-12-20T11:47:22.154Z,1007.34
2018-12-20T11:48:22.144Z,1007.39
2018-12-20T11:49:22.135Z,1007.36
2018-12-20T11:50:22.123Z,1007.37
2018-12-20T11:51:22.112Z,1007.36
2018-12-20T11:52:22.104Z,1007.34
2018-12-20T11:53:22.094Z,1007.31
2018-12-20T11:54:22.092Z,1007.36
2018-12-20T11:55:22.081Z,1007.33
2018-12-20T11:56:22.073Z,1007.33
2018-12-20T11:57:22.069Z,1007.31
2018-12-20T11:58:22.056Z,1007.26
2018-12-20T11:59:22.042Z,1007.24
2018-12-20T12:00:22.036Z,1007.29
2018-12-20T12:01:22.029Z,1007.24
2018-12-20T12:02:24.529Z,1007.26
2018-12-20T12:03:22.005Z,1007.30
2018-12-20T12:04:21.996Z,1007.27
2018-12-20T12:05:21.987Z,1007.25